Time;durP1;ratioP1;P1;durP2;ratioP2;P2;SDS_P1;SDS_P2;PMS_P1;PMS_P2;Temp;Humidity;BMP_temperature;BMP_pressure;BME280_temperature;BME280_humidity;BME280_pressure;Samples;Min_cycle;Max_cycle;Signal;HPM_P1;HPM_P2
2022/08/03 00:01:22;;;;;;;1.70;1.60;;;;;;;16.01;100.00;91046.13;5032677;28;20487;-70
2022/08/03 00:03:47;;;;;;;1.38;1.27;;;;;;;16.06;100.00;91043.19;5033856;28;20025;-70
2022/08/03 00:06:13;;;;;;;1.70;1.60;;;;;;;15.97;100.00;91049.84;5033943;28;20014;-70
2022/08/03 00:08:38;;;;;;;2.15;1.65;;;;;;;15.91;100.00;91043.13;5033867;28;20490;-70
2022/08/03 00:11:05;;;;;;;2.08;1.80;;;;;;;15.87;100.00;91051.06;5033774;28;20025;-69
2022/08/03 00:13:32;;;;;;;1.80;1.70;;;;;;;15.85;100.00;91043.34;5033744;28;20032;-69
2022/08/03 00:15:57;;;;;;;1.67;1.58;;;;;;;15.82;100.00;91041.34;5033644;28;20492;-69
2022/08/03 00:18:23;;;;;;;1.95;1.80;;;;;;;15.83;100.00;91045.59;5033764;28;20034;-69
2022/08/03 00:20:49;;;;;;;1.75;1.58;;;;;;;15.79;100.00;91044.72;5033694;28;20087;-70
2022/08/03 00:23:15;;;;;;;4.63;1.73;;;;;;;15.81;100.00;91049.75;5033627;28;20047;-70
2022/08/03 00:25:40;;;;;;;1.58;1.48;;;;;;;15.83;100.00;91042.13;5033820;28;20045;-70
2022/08/03 00:28:06;;;;;;;2.17;1.65;;;;;;;15.78;100.00;91048.53;5033541;28;20025;-70
2022/08/03 00:30:33;;;;;;;1.60;1.50;;;;;;;15.78;100.00;91053.06;5033367;28;20032;-69
2022/08/03 00:32:58;;;;;;;1.63;1.52;;;;;;;15.74;100.00;91047.59;5032102;28;20480;-70
2022/08/03 00:35:24;;;;;;;1.50;1.40;;;;;;;15.70;100.00;91052.09;5033628;28;20100;-70
2022/08/03 00:37:50;;;;;;;1.80;1.70;;;;;;;15.65;100.00;91052.31;5033308;28;20029;-70
2022/08/03 00:40:17;;;;;;;1.65;1.55;;;;;;;15.67;100.00;91043.94;5033474;28;20467;-69
2022/08/03 00:42:57;;;;;;;1.88;1.70;;;;;;;15.56;100.00;91051.59;5032944;28;20057;-70
2022/08/03 00:45:31;;;;;;;2.00;1.88;;;;;;;15.53;100.00;91044.25;5033068;28;20064;-70
2022/08/03 00:47:58;;;;;;;2.03;1.77;;;;;;;15.46;100.00;91044.81;5033055;28;20021;-70
2022/08/03 00:50:26;;;;;;;2.05;1.70;;;;;;;15.41;100.00;91053.06;5033094;28;20104;-70
2022/08/03 00:52:54;;;;;;;1.90;1.70;;;;;;;15.43;100.00;91052.72;5032825;28;20495;-70
2022/08/03 00:55:20;;;;;;;3.30;1.60;;;;;;;15.39;100.00;91044.56;5033069;28;20079;-70
2022/08/03 00:57:46;;;;;;;2.13;1.92;;;;;;;15.33;100.00;91045.13;5032958;28;20103;-70
2022/08/03 01:00:14;;;;;;;2.05;1.75;;;;;;;15.27;100.00;91049.91;5032850;28;20483;-70
2022/08/03 01:02:40;;;;;;;2.00;1.88;;;;;;;15.16;100.00;91044.22;5032780;28;20044;-70
2022/08/03 01:05:08;;;;;;;1.88;1.77;;;;;;;15.09;100.00;91040.50;5032830;28;20021;-70
2022/08/03 01:07:39;;;;;;;2.05;1.70;;;;;;;15.02;100.00;91049.09;5032679;28;20083;-70
2022/08/03 01:10:09;;;;;;;1.83;1.70;;;;;;;14.91;100.00;91042.59;5032765;28;20029;-70
2022/08/03 01:12:42;;;;;;;2.17;1.60;;;;;;;14.82;100.00;91033.88;5032666;28;20557;-69
2022/08/03 01:15:30;;;;;;;2.15;2.00;;;;;;;14.86;100.00;91042.81;5032258;28;20487;-70
2022/08/03 01:18:19;;;;;;;1.95;1.85;;;;;;;14.89;100.00;91042.94;5032445;28;20121;-70
2022/08/03 01:20:48;;;;;;;1.90;1.67;;;;;;;14.83;100.00;91041.59;5032522;28;20510;-70
2022/08/03 01:23:47;;;;;;;2.03;1.40;;;;;;;14.85;100.00;91041.25;5032383;28;20403;-70
2022/08/03 01:26:40;;;;;;;1.70;1.60;;;;;;;14.86;100.00;91034.78;5032465;28;20061;-70
2022/08/03 01:29:08;;;;;;;1.90;1.80;;;;;;;14.89;100.00;91034.13;5032406;28;20079;-70
2022/08/03 01:31:58;;;;;;;2.00;1.90;;;;;;;14.87;100.00;91033.69;5032277;28;20029;-70
2022/08/03 01:34:29;;;;;;;1.58;1.48;;;;;;;14.72;100.00;91023.59;5032153;28;20117;-70
2022/08/03 01:36:58;;;;;;;1.80;1.70;;;;;;;14.77;100.00;91034.88;5032296;28;20112;-70
2022/08/03 01:39:25;;;;;;;1.80;1.70;;;;;;;14.74;100.00;91030.19;5032116;28;20461;-70
2022/08/03 01:41:58;;;;;;;1.75;1.65;;;;;;;14.75;100.00;91025.59;5032072;28;20033;-70
2022/08/03 01:44:28;;;;;;;1.75;1.65;;;;;;;14.75;100.00;91033.63;5031605;28;20435;-70
2022/08/03 01:46:57;;;;;;;1.63;1.48;;;;;;;14.71;100.00;91027.38;5031995;28;20033;-69
2022/08/03 01:49:24;;;;;;;1.90;1.80;;;;;;;14.73;100.00;91028.63;5031906;28;20029;-69
2022/08/03 01:51:52;;;;;;;1.50;1.40;;;;;;;14.77;100.00;91026.06;5031988;28;20476;-69
2022/08/03 01:54:18;;;;;;;2.30;2.00;;;;;;;14.77;100.00;91026.06;5031816;28;20021;-69
2022/08/03 01:56:46;;;;;;;1.70;1.60;;;;;;;14.76;100.00;91021.81;5031876;28;20071;-70
2022/08/03 01:59:15;;;;;;;1.60;1.50;;;;;;;14.79;100.00;91019.25;5031993;28;20087;-69
2022/08/03 02:01:42;;;;;;;2.92;1.67;;;;;;;14.74;100.00;91005.28;5031684;28;20029;-69
2022/08/03 02:04:11;;;;;;;2.22;1.60;;;;;;;14.86;100.00;91013.38;5031716;28;20501;-69
2022/08/03 02:06:38;;;;;;;1.58;1.48;;;;;;;14.84;100.00;91002.97;5030434;28;20415;-69
2022/08/03 02:09:05;;;;;;;1.98;1.75;;;;;;;14.91;100.00;91013.13;5031713;28;20450;-69
2022/08/03 02:11:33;;;;;;;1.75;1.50;;;;;;;14.91;100.00;91019.28;5031599;28;20033;-69
2022/08/03 02:14:01;;;;;;;1.73;1.63;;;;;;;14.92;100.00;91012.03;5031404;28;20076;-69
2022/08/03 02:16:29;;;;;;;1.70;1.60;;;;;;;14.93;100.00;91018.94;5031192;28;20045;-69
2022/08/03 02:18:57;;;;;;;2.85;1.73;;;;;;;14.89;100.00;91013.47;5031511;28;20029;-69
2022/08/03 02:21:22;;;;;;;1.63;1.52;;;;;;;14.85;100.00;91014.47;5031405;28;20025;-69
2022/08/03 02:23:48;;;;;;;1.80;1.70;;;;;;;14.74;100.00;91006.06;5031349;28;20051;-70
2022/08/03 02:26:18;;;;;;;2.47;1.80;;;;;;;14.75;100.00;91012.22;5031273;28;20022;-70
2022/08/03 02:28:48;;;;;;;1.60;1.50;;;;;;;14.67;100.00;91011.19;5031399;28;20025;-69
2022/08/03 02:31:29;;;;;;;1.70;1.60;;;;;;;14.58;100.00;90995.22;5031396;28;20022;-70
2022/08/03 02:34:05;;;;;;;1.70;1.60;;;;;;;14.60;100.00;91006.38;5030991;28;20609;-70
2022/08/03 02:36:36;;;;;;;1.90;1.70;;;;;;;14.62;100.00;91006.03;5031261;28;20036;-70
2022/08/03 02:39:04;;;;;;;1.70;1.60;;;;;;;14.62;100.00;91012.19;5031311;28;20055;-70
2022/08/03 02:41:41;;;;;;;1.75;1.50;;;;;;;14.59;100.00;91014.75;5031225;28;20117;-70
2022/08/03 02:44:08;;;;;;;1.77;1.67;;;;;;;14.50;100.00;91003.31;5031128;28;20036;-70
2022/08/03 02:46:38;;;;;;;2.00;1.60;;;;;;;14.53;100.00;91011.50;5031176;28;20029;-69
2022/08/03 02:49:05;;;;;;;1.65;1.55;;;;;;;14.55;100.00;91014.63;5031171;28;20403;-69
2022/08/03 02:51:34;;;;;;;1.58;1.48;;;;;;;14.56;100.00;91016.19;5031127;28;20414;-69
2022/08/03 02:54:03;;;;;;;1.48;1.38;;;;;;;14.52;100.00;91009.94;5031057;28;20091;-70
2022/08/03 02:56:30;;;;;;;2.67;1.75;;;;;;;14.48;100.00;91005.53;5034742;28;20109;-70
2022/08/03 02:58:57;;;;;;;2.05;1.85;;;;;;;14.48;100.00;91009.00;5035275;28;20061;-72
2022/08/03 03:01:24;;;;;;;1.85;1.75;;;;;;;14.43;100.00;91021.78;5015400;28;20407;-73
2022/08/03 03:03:52;;;;;;;1.77;1.67;;;;;;;14.36;100.00;91030.38;5015040;28;20032;-71
2022/08/03 03:06:18;;;;;;;2.10;1.90;;;;;;;14.33;100.00;91033.66;5015150;28;20033;-71
2022/08/03 03:08:45;;;;;;;2.13;1.70;;;;;;;14.18;100.00;91024.34;5014600;28;20496;-72
2022/08/03 03:11:12;;;;;;;2.10;1.90;;;;;;;14.22;100.00;91029.84;5014959;28;20057;-71
2022/08/03 03:13:40;;;;;;;1.75;1.65;;;;;;;14.21;100.00;91036.31;5014786;28;20087;-71
2022/08/03 03:16:08;;;;;;;2.05;1.60;;;;;;;14.08;100.00;91028.22;5014755;28;20483;-69
2022/08/03 03:18:35;;;;;;;1.90;1.70;;;;;;;14.14;100.00;91041.41;5030140;28;20030;-70
2022/08/03 03:21:03;;;;;;;2.25;1.88;;;;;;;14.09;100.00;91037.81;5014854;28;20523;-68
2022/08/03 03:23:30;;;;;;;1.83;1.73;;;;;;;14.01;100.00;91041.31;5014212;28;20051;-69
2022/08/03 03:25:57;;;;;;;2.00;1.83;;;;;;;14.00;100.00;91045.09;5014649;28;20160;-68
2022/08/03 03:28:24;;;;;;;1.88;1.73;;;;;;;13.97;100.00;91043.09;5014662;28;20026;-70
2022/08/03 03:30:50;;;;;;;2.00;1.80;;;;;;;13.88;100.00;91038.91;5014618;28;20034;-72
2022/08/03 03:33:16;;;;;;;1.77;1.67;;;;;;;13.92;100.00;91048.63;5014427;28;20038;-69
2022/08/03 03:35:43;;;;;;;1.65;1.55;;;;;;;13.90;100.00;91052.75;5014886;28;20101;-71
2022/08/03 03:38:09;;;;;;;1.83;1.73;;;;;;;13.91;100.00;91040.94;5014469;28;20040;-70
2022/08/03 03:40:35;;;;;;;2.08;1.88;;;;;;;13.93;100.00;91042.19;5014609;28;20022;-68
2022/08/03 03:43:01;;;;;;;2.42;1.92;;;;;;;13.97;100.00;91048.44;5014489;28;20029;-68
2022/08/03 03:45:29;;;;;;;11.38;6.57;;;;;;;13.95;100.00;91047.19;5014455;28;20030;-68
2022/08/03 03:47:55;;;;;;;4.88;3.33;;;;;;;13.99;100.00;91054.25;5014157;28;20076;-70
2022/08/03 03:50:22;;;;;;;4.07;1.58;;;;;;;14.05;100.00;91052.97;5014421;28;20488;-71
2022/08/03 03:52:47;;;;;;;4.80;1.77;;;;;;;14.11;100.00;91047.41;5014341;28;20558;-70
2022/08/03 03:55:17;;;;;;;1.95;1.60;;;;;;;14.14;100.00;91055.56;5014332;28;20026;-70
2022/08/03 03:57:42;;;;;;;2.08;1.90;;;;;;;14.27;100.00;91051.06;5014598;28;20109;-69
2022/08/03 04:00:08;;;;;;;1.65;1.55;;;;;;;14.34;100.00;91052.06;5014383;28;20109;-70
2022/08/03 04:02:34;;;;;;;1.58;1.40;;;;;;;14.47;100.00;91054.84;5014101;28;20037;-70
2022/08/03 04:11:05;;;;;;;1.80;1.70;;;;;;;14.85;100.00;91051.97;5014045;28;20037;-69
2022/08/03 04:13:46;;;;;;;1.40;1.30;;;;;;;14.91;100.00;91043.38;5014077;28;20404;-69
2022/08/03 04:16:15;;;;;;;1.60;1.50;;;;;;;15.05;100.00;91042.31;5013746;28;20049;-69
2022/08/03 04:18:47;;;;;;;7.97;4.30;;;;;;;15.18;100.00;91047.34;5013937;28;20514;-69
2022/08/03 04:21:15;;;;;;;1.90;1.75;;;;;;;15.22;100.00;91052.81;5013965;28;20033;-69
2022/08/03 04:23:45;;;;;;;1.73;1.50;;;;;;;15.19;100.00;91048.91;5013670;28;20087;-69
2022/08/03 04:26:13;;;;;;;1.77;1.40;;;;;;;15.36;100.00;91055.19;5013761;28;20155;-69
2022/08/03 04:28:43;;;;;;;1.50;1.40;;;;;;;15.44;100.00;91059.66;5013801;28;20026;-69
2022/08/03 04:31:09;;;;;;;1.70;1.60;;;;;;;15.50;100.00;91063.69;5028878;28;20032;-69
2022/08/03 04:33:37;;;;;;;1.65;1.50;;;;;;;15.60;100.00;91057.09;5013459;28;20037;-70
2022/08/03 04:36:05;;;;;;;1.75;1.65;;;;;;;15.70;100.00;91068.19;5013651;28;20021;-70
2022/08/03 04:38:39;;;;;;;2.65;1.60;;;;;;;15.75;100.00;91067.94;5013528;28;20026;-70
2022/08/03 04:41:05;;;;;;;;;;;;;;;15.85;100.00;91072.88;5013842;28;20112;-70
2022/08/03 04:43:33;;;;;;;1.52;1.42;;;;;;;15.88;100.00;91072.19;5013438;28;20355;-70
2022/08/03 04:46:00;;;;;;;1.80;1.70;;;;;;;15.95;100.00;91078.91;5013841;28;20080;-70
2022/08/03 04:48:26;;;;;;;1.98;1.52;;;;;;;16.04;100.00;91074.19;5013347;28;20165;-70
2022/08/03 04:50:53;;;;;;;2.08;1.55;;;;;;;16.09;100.00;91068.56;5013280;28;20029;-70
2022/08/03 04:53:18;;;;;;;1.48;1.38;;;;;;;16.19;100.00;91076.19;5013160;28;20092;-70
2022/08/03 04:55:43;;;;;;;2.50;1.40;;;;;;;16.20;100.00;91072.38;5013080;28;20029;-68
2022/08/03 04:58:09;;;;;;;1.90;1.60;;;;;;;16.31;100.00;91073.47;5013170;28;20151;-68
2022/08/03 05:00:35;;;;;;;2.03;1.92;;;;;;;16.29;100.00;91074.94;5012986;28;20026;-71
2022/08/03 05:03:00;;;;;;;1.90;1.80;;;;;;;16.36;100.00;91086.66;5012831;28;20104;-74
2022/08/03 05:05:26;;;;;;;4.68;1.95;;;;;;;16.50;100.00;91072.06;5013038;28;20431;-76
2022/08/03 05:07:52;;;;;;;1.80;1.70;;;;;;;16.48;100.00;91065.13;5009168;28;20022;-76
2022/08/03 05:10:17;;;;;;;4.30;2.20;;;;;;;16.59;100.00;91080.78;5027840;28;20036;-78
2022/08/03 05:12:44;;;;;;;3.88;2.17;;;;;;;16.75;100.00;91074.38;5027515;28;20030;-76
2022/08/03 05:15:10;;;;;;;3.03;2.30;;;;;;;16.99;100.00;91070.00;5011690;28;20035;-75
2022/08/03 05:17:36;;;;;;;2.53;2.00;;;;;;;17.15;100.00;91061.97;5011738;28;20033;-75
2022/08/03 05:20:03;;;;;;;2.75;2.33;;;;;;;17.58;100.00;91086.13;5012513;28;20026;-75
2022/08/03 05:22:28;;;;;;;2.42;2.22;;;;;;;18.33;100.00;91069.03;5011768;28;20022;-75
2022/08/03 05:24:54;;;;;;;1.83;1.73;;;;;;;21.09;92.54;91057.84;5012361;28;20034;-75
2022/08/03 05:27:20;;;;;;;2.40;1.90;;;;;;;23.67;72.26;91091.88;5012410;28;20553;-74
2022/08/03 05:29:47;;;;;;;2.08;1.85;;;;;;;26.57;57.85;91082.47;5012516;28;20018;-75
2022/08/03 05:32:13;;;;;;;1.60;1.50;;;;;;;28.45;50.65;91089.66;5012496;28;20026;-77
2022/08/03 05:34:38;;;;;;;1.38;1.27;;;;;;;29.63;45.72;91066.41;5012341;28;20025;-75
2022/08/03 05:37:04;;;;;;;1.63;1.52;;;;;;;30.18;44.90;91095.06;5012414;28;20454;-74
2022/08/03 05:39:29;;;;;;;1.40;1.30;;;;;;;31.09;42.66;91085.84;5028217;28;20040;-77
2022/08/03 05:41:55;;;;;;;1.40;1.30;;;;;;;32.28;39.67;91093.19;5031079;28;20041;-76
2022/08/03 05:44:21;;;;;;;1.20;1.10;;;;;;;31.78;39.48;91086.38;5031603;28;20537;-77
2022/08/03 05:46:46;;;;;;;1.27;1.25;;;;;;;31.49;39.50;91064.38;5030580;28;20032;-74
2022/08/03 05:49:12;;;;;;;1.40;1.30;;;;;;;32.06;38.81;91078.50;5031934;28;20021;-73
2022/08/03 05:51:37;;;;;;;1.08;1.08;;;;;;;31.47;39.46;91072.28;5031598;28;20033;-76
2022/08/03 05:54:05;;;;;;;1.10;1.00;;;;;;;32.16;38.42;91053.41;5031391;28;20031;-77
2022/08/03 05:56:31;;;;;;;1.73;1.63;;;;;;;33.19;39.01;91076.16;5031743;28;20037;-75
2022/08/03 05:58:56;;;;;;;2.38;1.60;;;;;;;33.26;39.69;91075.91;5031614;28;20597;-75
2022/08/03 06:01:22;;;;;;;1.75;1.65;;;;;;;33.17;39.94;91068.34;5031514;28;20513;-75
2022/08/03 06:03:49;;;;;;;2.20;1.60;;;;;;;32.45;40.09;91085.59;5031481;28;20014;-74
2022/08/03 06:06:15;;;;;;;2.90;1.75;;;;;;;35.50;37.43;91110.88;5031599;28;20045;-77
2022/08/03 06:08:42;;;;;;;1.90;1.80;;;;;;;35.95;35.82;91108.16;5029802;28;20056;-73
2022/08/03 06:11:11;;;;;;;5.18;2.38;;;;;;;36.48;34.79;91096.69;5032332;28;20036;-78
2022/08/03 06:13:40;;;;;;;1.45;1.35;;;;;;;35.93;35.73;91113.38;5031208;28;20017;-82
2022/08/03 06:16:06;;;;;;;1.85;1.50;;;;;;;36.08;35.12;91102.44;5035014;28;20182;-78
2022/08/03 06:18:31;;;;;;;2.17;1.50;;;;;;;36.74;34.54;91112.91;5032374;28;20519;-74
2022/08/03 06:20:57;;;;;;;1.90;1.63;;;;;;;36.45;34.46;91108.72;5031402;28;20032;-75
2022/08/03 06:23:22;;;;;;;1.40;1.30;;;;;;;37.32;33.74;91112.53;5030851;28;20095;-76
2022/08/03 06:25:48;;;;;;;4.80;2.38;;;;;;;38.99;31.09;91124.53;5031156;28;20036;-74
2022/08/03 06:28:14;;;;;;;1.35;1.25;;;;;;;38.38;31.42;91115.91;5031162;28;20033;-74
2022/08/03 06:30:40;;;;;;;1.52;1.30;;;;;;;39.44;30.39;91112.03;5031372;28;20037;-74
2022/08/03 06:33:06;;;;;;;3.38;1.92;;;;;;;38.02;32.59;91117.75;5031074;28;20116;-74
2022/08/03 06:35:32;;;;;;;3.13;2.22;;;;;;;37.39;33.88;91108.63;5030778;28;20108;-74
2022/08/03 06:37:57;;;;;;;1.65;1.55;;;;;;;38.37;31.91;91115.16;5030678;28;20036;-75
2022/08/03 06:40:33;;;;;;;2.00;1.58;;;;;;;38.04;31.99;91110.50;5030809;28;20179;-74
2022/08/03 06:43:01;;;;;;;2.38;1.73;;;;;;;38.05;32.63;91106.47;5030974;28;20022;-76
2022/08/03 06:45:27;;;;;;;3.22;1.35;;;;;;;39.09;30.56;91110.03;5030703;28;20076;-78
2022/08/03 06:48:01;;;;;;;1.40;1.30;;;;;;;38.35;31.61;91103.75;5030365;28;20031;-75
2022/08/03 06:50:27;;;;;;;1.48;1.38;;;;;;;38.74;31.34;91100.88;5030725;28;20031;-74
2022/08/03 06:52:52;;;;;;;1.67;1.58;;;;;;;37.50;32.00;91111.66;5030495;28;20021;-73
2022/08/03 06:55:18;;;;;;;1.58;1.10;;;;;;;37.67;31.48;91103.66;5030840;28;20018;-72
2022/08/03 06:57:43;;;;;;;1.30;1.20;;;;;;;39.16;29.19;91111.66;5030853;28;20018;-73
2022/08/03 07:00:10;;;;;;;1.45;1.35;;;;;;;40.48;28.38;91109.53;5030582;28;20411;-77
2022/08/03 07:02:36;;;;;;;1.30;1.20;;;;;;;40.95;28.40;91119.34;5029035;28;20037;-74
2022/08/03 07:05:02;;;;;;;1.73;1.45;;;;;;;40.38;28.24;91109.66;5030468;28;20025;-76
2022/08/03 07:07:28;;;;;;;3.22;1.70;;;;;;;39.20;29.72;91118.56;5029054;28;20036;-70
2022/08/03 07:09:53;;;;;;;1.50;1.40;;;;;;;39.49;29.10;91114.91;5030848;28;20021;-70
2022/08/03 07:12:19;;;;;;;1.75;1.50;;;;;;;38.71;29.91;91122.06;5030429;28;20132;-73
2022/08/03 07:14:44;;;;;;;1.50;1.40;;;;;;;39.01;29.51;91114.47;5030179;28;20028;-77
2022/08/03 07:17:10;;;;;;;1.30;1.20;;;;;;;39.61;29.36;91124.22;5029421;28;20050;-73
2022/08/03 07:19:37;;;;;;;4.70;1.75;;;;;;;40.99;28.11;91119.88;5030708;28;20038;-78
2022/08/03 07:22:03;;;;;;;6.93;1.40;;;;;;;40.20;28.07;91128.72;5029046;28;20491;-73
2022/08/03 07:24:29;;;;;;;1.55;1.40;;;;;;;40.86;27.89;91122.31;5030844;28;20033;-73
2022/08/03 07:26:54;;;;;;;2.25;1.40;;;;;;;41.00;27.53;91122.19;5029004;28;20103;-73
2022/08/03 07:29:20;;;;;;;1.42;1.33;;;;;;;40.55;28.07;91115.41;5029476;28;20033;-71
2022/08/03 07:31:45;;;;;;;1.65;1.48;;;;;;;41.82;27.28;91114.13;5030691;28;20033;-71
2022/08/03 07:34:11;;;;;;;1.50;1.40;;;;;;;43.25;25.71;91123.84;5030519;28;20458;-72
2022/08/03 07:36:37;;;;;;;1.55;1.45;;;;;;;41.22;26.54;91116.00;5030693;28;20104;-71
2022/08/03 07:39:03;;;;;;;1.70;1.60;;;;;;;40.93;26.90;91121.88;5030718;28;20029;-72
2022/08/03 07:41:29;;;;;;;4.40;1.50;;;;;;;41.21;27.40;91108.91;5032519;28;20037;-70
2022/08/03 07:43:54;;;;;;;1.65;1.50;;;;;;;43.11;25.44;91120.03;5034223;28;20018;-70
2022/08/03 07:46:20;;;;;;;1.50;1.40;;;;;;;40.11;27.81;91121.31;5033693;28;20086;-70
2022/08/03 07:48:45;;;;;;;1.90;1.63;;;;;;;39.58;28.52;91110.47;5033827;28;20033;-71
2022/08/03 07:51:10;;;;;;;1.75;1.52;;;;;;;41.11;27.63;91115.91;5034331;28;20407;-71
2022/08/03 07:53:36;;;;;;;1.40;1.30;;;;;;;40.75;27.74;91122.22;5034112;28;20522;-70
2022/08/03 07:56:01;;;;;;;1.40;1.30;;;;;;;40.33;28.38;91126.34;5033940;28;20403;-70
2022/08/03 07:58:27;;;;;;;1.70;1.60;;;;;;;39.81;28.04;91110.28;5033923;28;20032;-70
2022/08/03 08:00:52;;;;;;;3.58;1.70;;;;;;;41.03;28.17;91125.22;5034051;28;20024;-71
2022/08/03 08:03:18;;;;;;;1.35;1.25;;;;;;;40.09;28.83;91124.59;5033983;28;20030;-71
2022/08/03 08:05:44;;;;;;;1.65;1.52;;;;;;;39.18;29.84;91115.50;5033722;28;20486;-71
2022/08/03 08:08:09;;;;;;;1.55;1.40;;;;;;;40.66;27.81;91115.53;5033999;28;20035;-72
2022/08/03 08:10:35;;;;;;;1.58;1.48;;;;;;;40.33;28.12;91120.75;5033695;28;20033;-71
2022/08/03 08:13:02;;;;;;;2.00;1.60;;;;;;;39.08;29.98;91122.44;5033848;28;20025;-71
2022/08/03 08:15:28;;;;;;;2.08;1.98;;;;;;;39.64;28.66;91116.91;5033645;28;20053;-72
2022/08/03 08:17:57;;;;;;;3.33;1.65;;;;;;;39.40;29.93;91126.16;5033740;28;20026;-71
2022/08/03 08:20:26;;;;;;;2.13;1.65;;;;;;;39.02;30.58;91129.13;5033785;28;20381;-72
2022/08/03 08:22:53;;;;;;;1.63;1.52;;;;;;;35.02;34.18;91116.75;5033880;28;20026;-71
2022/08/03 08:25:19;;;;;;;1.70;1.60;;;;;;;30.75;40.03;91115.72;5033369;28;20028;-71
2022/08/03 08:27:47;;;;;;;2.10;1.63;;;;;;;32.81;37.35;91101.78;5033093;28;20112;-70
2022/08/03 08:30:15;;;;;;;1.60;1.50;;;;;;;36.30;34.09;91110.56;5033329;28;20400;-71
2022/08/03 08:32:41;;;;;;;1.90;1.60;;;;;;;35.55;34.49;91113.06;5033407;28;20579;-71
2022/08/03 08:35:08;;;;;;;1.60;1.50;;;;;;;38.06;30.73;91110.00;5033465;28;20100;-71
2022/08/03 08:37:34;;;;;;;1.70;1.60;;;;;;;35.84;34.29;91115.38;5033394;28;20055;-71
2022/08/03 08:39:59;;;;;;;1.45;1.35;;;;;;;37.24;32.11;91110.53;5033477;28;20025;-71
2022/08/03 08:42:25;;;;;;;1.73;1.58;;;;;;;33.62;36.34;91114.88;5033291;28;20415;-71
2022/08/03 08:44:51;;;;;;;1.30;1.20;;;;;;;31.29;39.74;91105.75;5033281;28;20053;-71
2022/08/03 08:47:24;;;;;;;1.83;1.40;;;;;;;32.59;37.71;91098.16;5033255;28;20029;-71
2022/08/03 08:49:53;;;;;;;2.53;1.88;;;;;;;35.07;34.64;91115.41;5032947;28;20061;-71
2022/08/03 08:52:24;;;;;;;2.30;1.80;;;;;;;37.41;31.13;91108.94;5032119;28;20029;-71
2022/08/03 08:54:53;;;;;;;1.67;1.58;;;;;;;38.04;30.42;91109.72;5033155;28;20076;-71
2022/08/03 08:57:20;;;;;;;1.75;1.65;;;;;;;36.62;31.97;91105.59;5033091;28;20029;-72
2022/08/03 08:59:46;;;;;;;1.88;1.45;;;;;;;38.65;30.95;91118.41;5032909;28;20039;-71
2022/08/03 09:02:11;;;;;;;1.48;1.38;;;;;;;40.91;29.39;91110.44;5032545;28;20108;-72
2022/08/03 09:04:38;;;;;;;1.55;1.10;;;;;;;42.19;26.49;91107.66;5032650;28;20029;-72
2022/08/03 09:07:05;;;;;;;1.38;1.27;;;;;;;42.02;26.78;91112.41;5032646;28;20025;-72
2022/08/03 09:09:30;;;;;;;1.48;1.38;;;;;;;41.63;27.45;91112.97;5032531;28;20037;-72
2022/08/03 09:11:56;;;;;;;1.40;1.30;;;;;;;41.53;27.68;91117.25;5032351;28;20483;-72
2022/08/03 09:14:22;;;;;;;2.42;1.55;;;;;;;37.70;30.20;91113.81;5032294;28;20495;-72
2022/08/03 09:17:01;;;;;;;1.70;1.60;;;;;;;34.35;34.57;91113.81;5032601;28;20082;-72
2022/08/03 09:19:29;;;;;;;4.30;1.70;;;;;;;35.21;33.62;91111.28;5032836;28;20052;-69
2022/08/03 09:22:12;;;;;;;2.20;1.90;;;;;;;34.20;32.64;91108.84;5032563;28;20095;-69
2022/08/03 09:24:54;;;;;;;6.65;2.80;;;;;;;32.06;35.90;91108.78;5031948;28;20030;-67
2022/08/03 09:27:20;;;;;;;1.90;1.75;;;;;;;34.06;34.25;91109.38;5032587;28;20609;-69
2022/08/03 09:29:51;;;;;;;2.20;1.92;;;;;;;32.76;35.85;91103.09;5032081;28;20032;-69
2022/08/03 09:32:22;;;;;;;1.90;1.80;;;;;;;31.75;37.61;91103.00;5032284;28;20029;-69
2022/08/03 09:34:49;;;;;;;1.70;1.60;;;;;;;30.38;40.34;91101.28;5031541;28;20067;-71
2022/08/03 09:37:16;;;;;;;2.55;1.52;;;;;;;29.33;41.03;91114.75;5031877;28;20527;-69
2022/08/03 09:39:44;;;;;;;1.52;1.42;;;;;;;28.59;43.82;91111.31;5032273;28;20068;-69
2022/08/03 09:42:12;;;;;;;1.52;1.42;;;;;;;28.11;44.70;91114.38;5032110;28;20021;-70
2022/08/03 09:44:44;;;;;;;1.60;1.50;;;;;;;26.97;47.13;91101.97;5031933;28;20025;-70
2022/08/03 09:47:10;;;;;;;1.50;1.40;;;;;;;26.93;47.42;91121.13;5020132;28;20068;-69
2022/08/03 09:49:37;;;;;;;1.60;1.50;;;;;;;27.23;46.83;91111.50;5012101;28;20028;-68
2022/08/03 09:52:18;;;;;;;1.95;1.60;;;;;;;27.46;45.82;91114.38;5012137;28;20507;-69
2022/08/03 09:54:51;;;;;;;2.35;1.90;;;;;;;28.17;45.83;91099.78;5011934;28;20121;-69
2022/08/03 09:57:22;;;;;;;1.50;1.40;;;;;;;28.41;45.39;91089.72;5012306;28;20022;-75
2022/08/03 09:59:48;;;;;;;2.17;1.98;;;;;;;28.58;46.82;91093.34;5011914;28;20439;-70
2022/08/03 10:02:25;;;;;;;1.80;1.70;;;;;;;28.66;46.07;91102.97;5011433;28;20041;-71
2022/08/03 10:04:51;;;;;;;1.30;1.20;;;;;;;31.78;39.54;91097.38;5011538;28;20033;-69
2022/08/03 10:07:19;;;;;;;1.63;1.52;;;;;;;34.87;37.30;91098.44;5011793;28;20045;-68
2022/08/03 10:09:59;;;;;;;8.38;1.80;;;;;;;37.52;33.22;91103.59;5011768;28;20080;-70
2022/08/03 10:12:25;;;;;;;1.50;1.40;;;;;;;39.19;30.52;91097.53;5011844;28;20021;-69
2022/08/03 10:14:52;;;;;;;1.65;1.55;;;;;;;39.58;30.35;91102.91;5026477;28;20069;-74
2022/08/03 10:17:18;;;;;;;1.60;1.50;;;;;;;39.33;31.02;91095.22;5011810;28;20077;-70
2022/08/03 10:19:44;;;;;;;1.65;1.50;;;;;;;38.10;31.50;91091.13;5012030;28;20065;-72
2022/08/03 10:22:12;;;;;;;1.90;1.38;;;;;;;36.45;33.46;91088.53;5011694;28;20069;-72
2022/08/03 10:24:43;;;;;;;9.93;5.13;;;;;;;33.14;36.99;91083.00;5011807;28;20500;-72
2022/08/03 10:27:12;;;;;;;3.80;2.25;;;;;;;30.92;40.85;91082.31;5011688;28;20046;-73
2022/08/03 10:29:41;;;;;;;2.00;1.80;;;;;;;33.62;38.10;91092.78;5011663;28;20446;-73
2022/08/03 10:32:13;;;;;;;2.13;1.92;;;;;;;35.89;35.75;91084.31;5011545;28;20463;-73
2022/08/03 10:34:41;;;;;;;1.73;1.60;;;;;;;36.31;34.53;91081.63;5011620;28;20095;-73
2022/08/03 10:37:10;;;;;;;1.77;1.67;;;;;;;34.93;34.61;91082.81;5011642;28;20109;-73
2022/08/03 10:39:36;;;;;;;1.95;1.85;;;;;;;32.26;38.31;91073.56;5011807;28;20412;-73
2022/08/03 10:42:04;;;;;;;3.17;2.22;;;;;;;34.45;36.10;91065.72;5011498;28;20042;-73
2022/08/03 10:44:40;;;;;;;3.35;2.10;;;;;;;34.72;35.84;91070.59;5026733;28;20610;-73
2022/08/03 10:47:05;;;;;;;1.90;1.80;;;;;;;35.51;33.89;91071.72;5011570;28;20067;-73
2022/08/03 10:49:31;;;;;;;8.57;3.15;;;;;;;34.83;34.66;91079.97;5011537;28;20128;-73
2022/08/03 10:51:57;;;;;;;2.83;2.03;;;;;;;36.56;32.73;91072.94;5011713;28;20041;-74
2022/08/03 10:57:45;;;;;;;1.90;1.80;;;;;;;34.68;33.42;91076.25;5011442;28;20049;-74
2022/08/03 11:00:13;;;;;;;1.92;1.83;;;;;;;32.97;36.87;91071.34;5011262;28;20049;-73
2022/08/03 11:03:13;;;;;;;2.42;2.22;;;;;;;30.48;40.77;91080.28;5011479;28;20043;-73
2022/08/03 11:05:47;;;;;;;2.10;1.90;;;;;;;29.28;42.52;91074.13;5009149;28;20511;-73
2022/08/03 11:08:21;;;;;;;2.72;2.00;;;;;;;29.89;42.18;91079.19;5011127;28;20081;-73
2022/08/03 11:10:48;;;;;;;2.47;2.15;;;;;;;33.46;38.07;91067.38;5011532;28;20060;-73
2022/08/03 11:13:25;;;;;;;1.92;1.83;;;;;;;35.25;34.85;91076.72;5011149;28;20076;-74
2022/08/03 11:15:53;;;;;;;4.30;2.05;;;;;;;35.53;34.31;91071.25;5011827;28;20137;-73
2022/08/03 11:18:19;;;;;;;1.88;1.73;;;;;;;37.21;32.24;91078.19;5015122;28;20033;-73
2022/08/03 11:20:45;;;;;;;1.75;1.65;;;;;;;38.35;29.96;91075.97;5015154;28;20138;-73
2022/08/03 11:23:11;;;;;;;2.15;1.98;;;;;;;36.36;33.39;91069.94;5015091;28;20061;-74
2022/08/03 11:26:17;;;;;;;2.70;2.50;;;;;;;36.36;32.26;91069.94;5014885;28;20041;-74
2022/08/03 11:28:45;;;;;;;2.38;2.17;;;;;;;32.56;37.83;91063.25;5014799;28;20097;-73
2022/08/03 11:31:26;;;;;;;2.70;2.50;;;;;;;30.88;41.65;91072.63;5014816;28;20057;-73
2022/08/03 11:34:08;;;;;;;3.00;2.33;;;;;;;30.48;42.92;91075.56;5014566;28;20415;-73
2022/08/03 11:37:12;;;;;;;1.93;1.83;;;;;;;30.25;42.53;91075.69;5014856;28;20068;-73
2022/08/03 11:39:45;;;;;;;1.98;1.85;;;;;;;29.45;44.09;91062.03;5014708;28;20091;-73
2022/08/03 11:42:22;;;;;;;2.38;1.90;;;;;;;28.34;45.54;91063.22;5014573;28;20103;-73
2022/08/03 11:44:52;;;;;;;2.60;2.00;;;;;;;27.81;47.51;91066.72;5014680;28;20065;-73